sensor_id;sensor_type;location;lat;lon;timestamp;P1;durP1;ratioP1;P2;durP2;ratioP2
20104;SDS011;10212;42.714;23.310;2024-03-06T00:06:33;29.98;;;13.82;;
20104;SDS011;10212;42.714;23.310;2024-03-06T00:16:33;28.17;;;14.23;;
20104;SDS011;10212;42.714;23.310;2024-03-06T00:26:34;29.33;;;14.38;;
20104;SDS011;10212;42.714;23.310;2024-03-06T00:36:34;32.05;;;15.27;;
20104;SDS011;10212;42.714;23.310;2024-03-06T00:46:34;33.22;;;16.10;;
20104;SDS011;10212;42.714;23.310;2024-03-06T00:56:38;30.25;;;15.80;;
20104;SDS011;10212;42.714;23.310;2024-03-06T01:06:39;29.42;;;15.50;;
20104;SDS011;10212;42.714;23.310;2024-03-06T01:16:40;31.60;;;15.38;;
20104;SDS011;10212;42.714;23.310;2024-03-06T01:26:40;30.30;;;15.88;;
20104;SDS011;10212;42.714;23.310;2024-03-06T01:36:40;32.58;;;15.32;;
20104;SDS011;10212;42.714;23.310;2024-03-06T01:46:41;31.30;;;16.15;;
20104;SDS011;10212;42.714;23.310;2024-03-06T01:56:45;33.67;;;15.45;;
20104;SDS011;10212;42.714;23.310;2024-03-06T02:06:50;33.20;;;15.15;;
20104;SDS011;10212;42.714;23.310;2024-03-06T02:16:51;32.30;;;15.13;;
20104;SDS011;10212;42.714;23.310;2024-03-06T02:26:51;31.10;;;15.25;;
20104;SDS011;10212;42.714;23.310;2024-03-06T02:36:52;38.35;;;17.95;;
20104;SDS011;10212;42.714;23.310;2024-03-06T02:46:52;36.25;;;17.83;;
20104;SDS011;10212;42.714;23.310;2024-03-06T02:56:53;33.92;;;17.50;;
20104;SDS011;10212;42.714;23.310;2024-03-06T03:06:53;36.72;;;17.00;;
20104;SDS011;10212;42.714;23.310;2024-03-06T03:16:53;32.63;;;16.63;;
20104;SDS011;10212;42.714;23.310;2024-03-06T03:26:54;29.25;;;15.13;;
20104;SDS011;10212;42.714;23.310;2024-03-06T03:36:54;34.33;;;16.17;;
20104;SDS011;10212;42.714;23.310;2024-03-06T03:46:55;34.75;;;16.35;;
20104;SDS011;10212;42.714;23.310;2024-03-06T03:56:55;34.47;;;16.55;;
20104;SDS011;10212;42.714;23.310;2024-03-06T04:06:55;36.75;;;16.48;;
20104;SDS011;10212;42.714;23.310;2024-03-06T04:16:59;34.97;;;16.85;;
20104;SDS011;10212;42.714;23.310;2024-03-06T04:27:00;44.00;;;17.17;;
20104;SDS011;10212;42.714;23.310;2024-03-06T04:37:00;36.72;;;17.00;;
20104;SDS011;10212;42.714;23.310;2024-03-06T04:47:01;39.63;;;18.25;;
20104;SDS011;10212;42.714;23.310;2024-03-06T04:57:02;34.35;;;15.85;;
20104;SDS011;10212;42.714;23.310;2024-03-06T05:07:03;37.47;;;16.35;;
20104;SDS011;10212;42.714;23.310;2024-03-06T05:17:03;32.35;;;15.40;;
20104;SDS011;10212;42.714;23.310;2024-03-06T05:27:04;30.17;;;15.35;;
20104;SDS011;10212;42.714;23.310;2024-03-06T05:37:04;31.95;;;14.82;;
20104;SDS011;10212;42.714;23.310;2024-03-06T05:47:05;38.83;;;17.73;;
20104;SDS011;10212;42.714;23.310;2024-03-06T05:57:07;33.30;;;15.00;;
20104;SDS011;10212;42.714;23.310;2024-03-06T06:07:07;30.70;;;15.02;;
20104;SDS011;10212;42.714;23.310;2024-03-06T06:17:08;31.05;;;16.75;;
20104;SDS011;10212;42.714;23.310;2024-03-06T06:27:08;39.78;;;19.55;;
20104;SDS011;10212;42.714;23.310;2024-03-06T06:37:09;40.33;;;20.38;;
20104;SDS011;10212;42.714;23.310;2024-03-06T06:47:09;49.90;;;23.80;;
20104;SDS011;10212;42.714;23.310;2024-03-06T06:57:10;55.78;;;25.75;;
20104;SDS011;10212;42.714;23.310;2024-03-06T07:07:10;50.43;;;22.03;;
20104;SDS011;10212;42.714;23.310;2024-03-06T07:17:11;47.90;;;21.98;;
20104;SDS011;10212;42.714;23.310;2024-03-06T07:27:11;53.45;;;23.02;;
20104;SDS011;10212;42.714;23.310;2024-03-06T07:37:12;40.58;;;23.17;;
20104;SDS011;10212;42.714;23.310;2024-03-06T07:47:14;39.45;;;19.52;;
20104;SDS011;10212;42.714;23.310;2024-03-06T07:57:15;36.08;;;18.50;;
20104;SDS011;10212;42.714;23.310;2024-03-06T08:07:15;40.58;;;19.65;;
20104;SDS011;10212;42.714;23.310;2024-03-06T08:17:15;43.85;;;20.80;;
20104;SDS011;10212;42.714;23.310;2024-03-06T08:27:16;38.13;;;18.63;;
20104;SDS011;10212;42.714;23.310;2024-03-06T08:37:17;44.13;;;20.40;;
20104;SDS011;10212;42.714;23.310;2024-03-06T08:47:18;33.45;;;18.30;;
20104;SDS011;10212;42.714;23.310;2024-03-06T08:57:18;31.60;;;18.42;;
20104;SDS011;10212;42.714;23.310;2024-03-06T09:07:21;39.58;;;19.73;;
20104;SDS011;10212;42.714;23.310;2024-03-06T09:17:25;31.75;;;16.65;;
20104;SDS011;10212;42.714;23.310;2024-03-06T09:27:25;28.00;;;13.65;;
20104;SDS011;10212;42.714;23.310;2024-03-06T09:37:27;18.45;;;10.25;;
20104;SDS011;10212;42.714;23.310;2024-03-06T09:47:27;24.92;;;11.15;;
20104;SDS011;10212;42.714;23.310;2024-03-06T09:57:32;19.98;;;9.65;;
20104;SDS011;10212;42.714;23.310;2024-03-06T10:07:32;20.58;;;10.65;;
20104;SDS011;10212;42.714;23.310;2024-03-06T10:17:33;17.00;;;8.52;;
20104;SDS011;10212;42.714;23.310;2024-03-06T10:27:33;12.10;;;7.50;;
20104;SDS011;10212;42.714;23.310;2024-03-06T10:37:34;11.93;;;7.00;;
20104;SDS011;10212;42.714;23.310;2024-03-06T10:47:34;15.60;;;7.28;;
20104;SDS011;10212;42.714;23.310;2024-03-06T10:57:38;13.75;;;6.85;;
20104;SDS011;10212;42.714;23.310;2024-03-06T11:07:42;10.18;;;6.03;;
20104;SDS011;10212;42.714;23.310;2024-03-06T11:17:43;12.48;;;7.15;;
20104;SDS011;10212;42.714;23.310;2024-03-06T11:28:03;12.25;;;6.55;;
20104;SDS011;10212;42.714;23.310;2024-03-06T11:38:10;11.20;;;7.13;;
20104;SDS011;10212;42.714;23.310;2024-03-06T11:48:10;9.57;;;6.20;;
20104;SDS011;10212;42.714;23.310;2024-03-06T11:58:17;9.35;;;5.95;;
20104;SDS011;10212;42.714;23.310;2024-03-06T12:08:17;16.88;;;6.97;;
20104;SDS011;10212;42.714;23.310;2024-03-06T12:18:19;13.27;;;6.63;;
20104;SDS011;10212;42.714;23.310;2024-03-06T12:28:23;10.65;;;6.85;;
20104;SDS011;10212;42.714;23.310;2024-03-06T12:38:24;10.02;;;6.18;;
20104;SDS011;10212;42.714;23.310;2024-03-06T12:48:29;12.45;;;5.88;;
20104;SDS011;10212;42.714;23.310;2024-03-06T12:58:30;7.95;;;4.82;;
20104;SDS011;10212;42.714;23.310;2024-03-06T13:08:35;9.48;;;5.28;;
20104;SDS011;10212;42.714;23.310;2024-03-06T13:18:36;8.88;;;4.10;;
20104;SDS011;10212;42.714;23.310;2024-03-06T13:28:37;5.53;;;4.30;;
20104;SDS011;10212;42.714;23.310;2024-03-06T13:38:37;6.05;;;4.40;;
20104;SDS011;10212;42.714;23.310;2024-03-06T13:48:38;7.90;;;5.18;;
20104;SDS011;10212;42.714;23.310;2024-03-06T13:58:38;9.75;;;4.80;;
20104;SDS011;10212;42.714;23.310;2024-03-06T14:08:39;8.35;;;4.80;;
20104;SDS011;10212;42.714;23.310;2024-03-06T14:18:41;8.48;;;5.03;;
20104;SDS011;10212;42.714;23.310;2024-03-06T14:28:41;10.45;;;4.93;;
20104;SDS011;10212;42.714;23.310;2024-03-06T14:38:42;10.95;;;5.57;;
20104;SDS011;10212;42.714;23.310;2024-03-06T14:48:44;8.70;;;5.80;;
20104;SDS011;10212;42.714;23.310;2024-03-06T14:58:44;15.85;;;9.23;;
20104;SDS011;10212;42.714;23.310;2024-03-06T15:08:45;15.13;;;8.75;;
20104;SDS011;10212;42.714;23.310;2024-03-06T15:18:45;13.70;;;8.27;;
20104;SDS011;10212;42.714;23.310;2024-03-06T15:28:48;13.30;;;7.78;;
20104;SDS011;10212;42.714;23.310;2024-03-06T15:38:48;11.73;;;7.60;;
20104;SDS011;10212;42.714;23.310;2024-03-06T15:48:49;15.25;;;8.50;;
20104;SDS011;10212;42.714;23.310;2024-03-06T15:58:50;14.05;;;9.48;;
20104;SDS011;10212;42.714;23.310;2024-03-06T16:08:50;11.43;;;8.52;;
20104;SDS011;10212;42.714;23.310;2024-03-06T16:18:51;15.70;;;9.80;;
20104;SDS011;10212;42.714;23.310;2024-03-06T16:28:52;22.63;;;12.32;;
20104;SDS011;10212;42.714;23.310;2024-03-06T16:38:52;14.82;;;10.07;;
20104;SDS011;10212;42.714;23.310;2024-03-06T16:48:52;18.10;;;10.90;;
20104;SDS011;10212;42.714;23.310;2024-03-06T16:58:53;29.17;;;17.67;;
20104;SDS011;10212;42.714;23.310;2024-03-06T17:08:54;28.00;;;15.77;;
20104;SDS011;10212;42.714;23.310;2024-03-06T17:18:54;29.02;;;15.75;;
20104;SDS011;10212;42.714;23.310;2024-03-06T17:28:54;22.75;;;13.70;;
20104;SDS011;10212;42.714;23.310;2024-03-06T17:38:55;26.73;;;14.98;;
20104;SDS011;10212;42.714;23.310;2024-03-06T17:48:57;23.15;;;13.77;;
20104;SDS011;10212;42.714;23.310;2024-03-06T17:58:58;30.98;;;17.63;;
20104;SDS011;10212;42.714;23.310;2024-03-06T18:08:59;21.75;;;13.20;;
20104;SDS011;10212;42.714;23.310;2024-03-06T18:19:00;20.75;;;12.93;;
20104;SDS011;10212;42.714;23.310;2024-03-06T18:29:00;21.48;;;13.57;;
20104;SDS011;10212;42.714;23.310;2024-03-06T18:39:01;21.83;;;13.45;;
20104;SDS011;10212;42.714;23.310;2024-03-06T18:49:02;22.42;;;12.55;;
20104;SDS011;10212;42.714;23.310;2024-03-06T18:59:02;24.15;;;13.77;;
20104;SDS011;10212;42.714;23.310;2024-03-06T19:09:03;17.38;;;10.13;;
20104;SDS011;10212;42.714;23.310;2024-03-06T19:19:05;19.70;;;11.20;;
20104;SDS011;10212;42.714;23.310;2024-03-06T19:29:06;16.98;;;10.98;;
20104;SDS011;10212;42.714;23.310;2024-03-06T19:39:07;17.48;;;11.15;;
20104;SDS011;10212;42.714;23.310;2024-03-06T19:49:08;16.30;;;9.70;;
20104;SDS011;10212;42.714;23.310;2024-03-06T19:59:09;14.65;;;8.77;;
20104;SDS011;10212;42.714;23.310;2024-03-06T20:09:09;11.43;;;7.35;;
20104;SDS011;10212;42.714;23.310;2024-03-06T20:19:13;9.48;;;6.60;;
20104;SDS011;10212;42.714;23.310;2024-03-06T20:29:14;11.38;;;6.38;;
20104;SDS011;10212;42.714;23.310;2024-03-06T20:39:15;10.98;;;6.68;;
20104;SDS011;10212;42.714;23.310;2024-03-06T20:49:15;15.48;;;7.25;;
20104;SDS011;10212;42.714;23.310;2024-03-06T20:59:15;16.92;;;8.75;;
20104;SDS011;10212;42.714;23.310;2024-03-06T21:09:16;13.18;;;7.82;;
20104;SDS011;10212;42.714;23.310;2024-03-06T21:19:17;12.57;;;8.00;;
20104;SDS011;10212;42.714;23.310;2024-03-06T21:29:17;16.40;;;10.60;;
20104;SDS011;10212;42.714;23.310;2024-03-06T21:39:18;19.60;;;11.23;;
20104;SDS011;10212;42.714;23.310;2024-03-06T21:49:19;16.33;;;11.43;;
20104;SDS011;10212;42.714;23.310;2024-03-06T21:59:23;19.42;;;12.82;;
20104;SDS011;10212;42.714;23.310;2024-03-06T22:09:23;25.65;;;15.27;;
20104;SDS011;10212;42.714;23.310;2024-03-06T22:19:23;30.23;;;17.30;;
20104;SDS011;10212;42.714;23.310;2024-03-06T22:29:24;32.33;;;21.98;;
20104;SDS011;10212;42.714;23.310;2024-03-06T22:39:24;35.40;;;23.27;;
20104;SDS011;10212;42.714;23.310;2024-03-06T22:49:25;38.92;;;23.38;;
20104;SDS011;10212;42.714;23.310;2024-03-06T22:59:26;38.78;;;23.88;;
20104;SDS011;10212;42.714;23.310;2024-03-06T23:09:26;37.53;;;23.05;;
20104;SDS011;10212;42.714;23.310;2024-03-06T23:19:27;35.50;;;22.67;;
20104;SDS011;10212;42.714;23.310;2024-03-06T23:29:28;40.13;;;24.83;;
20104;SDS011;10212;42.714;23.310;2024-03-06T23:39:28;40.65;;;24.80;;
20104;SDS011;10212;42.714;23.310;2024-03-06T23:49:29;42.50;;;25.02;;
20104;SDS011;10212;42.714;23.310;2024-03-06T23:59:29;43.88;;;25.60;;
